MSC Bettina — HPFG — position and weather

sailwx.info

Track history (hours):
 
Tides and Currents Weather Stations Pressure Air Temp Water Temp Dewpoint Dewpoint Depression Visibility Wind Speed Wind Dir Waves Ship Positions

MSC Bettina

Last reported at 2015-Jul-30 08:08 UTC. Time now 2015-Aug-03 08:36 UTC.
Position N 30°37' E 032°20'.

Length 366 m; draft 14.5 m.

Type: Ship (hazmat cat A). MMSI: 352361000.

Date/timePositionNaut miles runAvg speedWind from/ knotsBaromVisibWave heightAir tempDewpointWater temp
2015-Jul-30 08:08N 30°37' E 032°20'5 8.5
2015-Jul-30 07:33N 30°42' E 032°21'1010.2
2015-Jul-30 06:34N 30°52' E 032°19'9 9.1
2015-Jul-30 05:31N 31°02' E 032°19'10 9.4
2015-Jul-30 04:26N 31°12' E 032°20'1 0.4
2015-Jul-30 02:29N 31°12' E 032°21'0 0.0
2015-Jul-30 01:32N 31°12' E 032°21'0 0.0
2015-Jul-30 00:32N 31°12' E 032°21'0 0.0
2015-Jul-29 22:32N 31°12' E 032°21'0 0.0
2015-Jul-29 18:29N 31°12' E 032°21'0 0.0
2015-Jul-29 14:32N 31°12' E 032°21'0 0.0
2015-Jul-29 13:08N 31°12' E 032°21'0 0.0
2015-Jul-29 12:32N 31°12' E 032°21'0 0.0
2015-Jul-29 11:26N 31°12' E 032°21'0 0.0
2015-Jul-29 00:26N 31°12' E 032°21'0 0.0
2015-Jul-28 23:26N 31°12' E 032°21'0 0.0
2015-Jul-28 21:32N 31°12' E 032°21'0 0.0
2015-Jul-28 20:23N 31°12' E 032°21'0 0.0
2015-Jul-28 17:26N 31°12' E 032°21'0 0.0
2015-Jul-28 16:32N 31°12' E 032°21'0 0.0
2015-Jul-28 15:11N 31°12' E 032°21'1 1.0
2015-Jul-28 14:33N 31°13' E 032°21'10 9.9
2015-Jul-28 13:33N 31°23' E 032°23'7 1.2
2015-Jul-28 08:08N 31°28' E 032°19'9 8.9
2015-Jul-28 07:09N 31°33' E 032°11'711.1
2015-Jul-28 06:31N 31°38' E 032°05'1010.0
2015-Jul-28 05:33N 31°45' E 031°57'8 8.5
2015-Jul-28 04:33N 31°50' E 031°50'8 8.5
2015-Jul-28 03:33N 31°56' E 031°42'8 8.4
2015-Jul-28 02:33N 32°01' E 031°34'8 8.4
2015-Jul-28 01:33N 32°06' E 031°26'9 8.3
2015-Jul-28 00:29N 32°10' E 031°17'24 8.1
2015-Jul-27 21:33N 32°26' E 030°56'8 8.5
2015-Jul-27 20:34N 32°32' E 030°49'8 8.3
2015-Jul-27 19:34N 32°38' E 030°42'8 8.2
2015-Jul-27 18:33N 32°43' E 030°34'9 9.1
2015-Jul-27 17:33N 32°48' E 030°26'3210.7
2015-Jul-27 14:33N 33°09' E 029°56'1110.7
2015-Jul-27 13:34N 33°15' E 029°46'1110.9
2015-Jul-27 12:33N 33°22' E 029°35'7011.4
2015-Jul-27 06:25N 34°06' E 028°31'1412.3
2015-Jul-27 05:19N 34°15' E 028°18'1012.5
2015-Jul-27 04:33N 34°21' E 028°09'1313.4
2015-Jul-27 03:33N 34°29' E 027°56'1413.6
2015-Jul-27 02:33N 34°38' E 027°43'1413.6
2015-Jul-27 01:33N 34°46' E 027°30'1313.3
2015-Jul-27 00:33N 34°55' E 027°18'1313.1
2015-Jul-26 23:33N 35°03' E 027°05'1313.3
2015-Jul-26 22:33N 35°11' E 026°53'1413.9
2015-Jul-26 21:33N 35°20' E 026°40'1414.1
2015-Jul-26 20:33N 35°29' E 026°26'1413.6
2015-Jul-26 19:33N 35°36' E 026°12'1413.3
2015-Jul-26 18:29N 35°44' E 025°57'1213.3
2015-Jul-26 17:33N 35°50' E 025°44'1413.2
2015-Jul-26 16:31N 35°57' E 025°30'1313.1
2015-Jul-26 15:33N 36°04' E 025°16'1313.2
2015-Jul-26 14:33N 36°10' E 025°02'1413.7
2015-Jul-26 13:33N 36°18' E 024°48'1313.1
2015-Jul-26 12:32N 36°24' E 024°33'1312.9
2015-Jul-26 11:34N 36°31' E 024°20'1212.4
2015-Jul-26 10:34N 36°40' E 024°10'1313.1
2015-Jul-26 09:34N 36°53' E 024°04'1313.2
2015-Jul-26 08:34N 37°05' E 023°58'1313.4
2015-Jul-26 07:33N 37°18' E 023°52'1313.0
2015-Jul-26 06:33N 37°30' E 023°47'1313.2
2015-Jul-26 05:34N 37°42' E 023°41'1212.5
2015-Jul-26 04:34N 37°54' E 023°37'3 3.4
2015-Jul-26 03:33N 37°57' E 023°35'0 0.0
2015-Jul-26 02:33N 37°57' E 023°35'0 0.0
2015-Jul-26 01:33N 37°57' E 023°35'0 0.0
2015-Jul-26 00:33N 37°57' E 023°35'0 0.0
2015-Jul-25 23:33N 37°57' E 023°35'0 0.0
2015-Jul-25 22:33N 37°57' E 023°35'0 0.0
2015-Jul-25 21:33N 37°57' E 023°35'0 0.0
2015-Jul-25 20:33N 37°57' E 023°35'0 0.0
2015-Jul-25 19:30N 37°57' E 023°35'0 0.0
2015-Jul-25 18:30N 37°57' E 023°35'0 0.0
2015-Jul-25 17:33N 37°57' E 023°35'0 0.0
2015-Jul-25 16:33N 37°57' E 023°35'0 0.0
2015-Jul-25 15:33N 37°57' E 023°35'0 0.0
2015-Jul-25 14:33N 37°57' E 023°35'0 0.0
2015-Jul-25 13:33N 37°57' E 023°35'0 0.0
2015-Jul-25 12:33N 37°57' E 023°35'0 0.0
2015-Jul-25 11:33N 37°57' E 023°35'0 0.0
2015-Jul-25 10:33N 37°57' E 023°35'0 0.0
2015-Jul-25 09:27N 37°57' E 023°35'0 0.0
2015-Jul-25 08:33N 37°57' E 023°35'0 0.0
2015-Jul-25 07:33N 37°57' E 023°35'0 0.0
2015-Jul-25 06:33N 37°57' E 023°35'0 0.0
2015-Jul-25 05:33N 37°57' E 023°35'1 0.6
2015-Jul-25 04:33N 37°57' E 023°35'3 2.8
2015-Jul-25 03:33N 37°54' E 023°36'2 2.1
2015-Jul-25 02:33N 37°52' E 023°38'8 7.9
2015-Jul-25 01:34N 37°46' E 023°42'1111.1
2015-Jul-25 00:33N 37°35' E 023°48'5 5.2
2015-Jul-24 23:33N 37°30' E 023°48'1 1.1
2015-Jul-24 22:33N 37°29' E 023°47'1 1.1
2015-Jul-24 21:33N 37°29' E 023°46'1 1.0
2015-Jul-24 20:33N 37°28' E 023°45'1 1.1
2015-Jul-24 19:33N 37°27' E 023°44'1 1.1
2015-Jul-24 18:33N 37°26' E 023°44'1 1.1
2015-Jul-24 17:33N 37°25' E 023°44'1 1.0
2015-Jul-24 16:33N 37°24' E 023°44'1 1.0
2015-Jul-24 15:33N 37°23' E 023°45'1 1.0
2015-Jul-24 14:33N 37°22' E 023°46'1 0.8
2015-Jul-24 13:33N 37°22' E 023°47'1 0.9
2015-Jul-24 12:33N 37°22' E 023°48'1 1.0
2015-Jul-24 11:33N 37°22' E 023°49'1 0.6
2015-Jul-24 10:33N 37°22' E 023°50'1 0.6
2015-Jul-24 09:33N 37°22' E 023°50'1 0.5
2015-Jul-24 08:33N 37°22' E 023°51'1 0.5
2015-Jul-24 07:33N 37°22' E 023°51'1 1.1
2015-Jul-24 06:33N 37°23' E 023°53'10 9.6
2015-Jul-24 05:34N 37°31' E 023°58'19 8.6
2015-Jul-24 03:21N 37°45' E 024°15'8 9.6
2015-Jul-24 02:31N 37°49' E 024°23'24010.3
2015-Jul-23 03:20N 40°48' E 027°50'2311.3
2015-Jul-23 01:15N 40°51' E 028°21'912.4
2015-Jul-23 00:33N 40°52' E 028°32'1111.1
2015-Jul-22 23:32N 40°45' E 028°45'1313.1
2015-Jul-22 22:33N 40°45' E 029°01'1313.3
2015-Jul-22 21:33N 40°45' E 029°19'1211.4
2015-Jul-22 20:32N 40°45' E 029°34'  
Track history (hours):
 
Tides and Currents Weather Stations Pressure Air Temp Water Temp Dewpoint Dewpoint Depression Visibility Wind Speed Wind Dir Waves Ship Positions

MSC Bettina

Last reported at 2015-Jul-30 08:08 UTC. Time now 2015-Aug-03 08:36 UTC.
Position N 30°37' E 032°20'.

Length 366 m; draft 14.5 m.

Type: Ship (hazmat cat A). MMSI: 352361000.

Date/timePositionNaut miles runAvg speedWind from/ knotsBaromVisibWave heightAir tempDewpointWater temp
2015-Jul-30 08:08N 30°37' E 032°20'5 8.5
2015-Jul-30 07:33N 30°42' E 032°21'1010.2
2015-Jul-30 06:34N 30°52' E 032°19'9 9.1
2015-Jul-30 05:31N 31°02' E 032°19'10 9.4
2015-Jul-30 04:26N 31°12' E 032°20'1 0.4
2015-Jul-30 02:29N 31°12' E 032°21'0 0.0
2015-Jul-30 01:32N 31°12' E 032°21'0 0.0
2015-Jul-30 00:32N 31°12' E 032°21'0 0.0
2015-Jul-29 22:32N 31°12' E 032°21'0 0.0
2015-Jul-29 18:29N 31°12' E 032°21'0 0.0
2015-Jul-29 14:32N 31°12' E 032°21'0 0.0
2015-Jul-29 13:08N 31°12' E 032°21'0 0.0
2015-Jul-29 12:32N 31°12' E 032°21'0 0.0
2015-Jul-29 11:26N 31°12' E 032°21'0 0.0
2015-Jul-29 00:26N 31°12' E 032°21'0 0.0
2015-Jul-28 23:26N 31°12' E 032°21'0 0.0
2015-Jul-28 21:32N 31°12' E 032°21'0 0.0
2015-Jul-28 20:23N 31°12' E 032°21'0 0.0
2015-Jul-28 17:26N 31°12' E 032°21'0 0.0
2015-Jul-28 16:32N 31°12' E 032°21'0 0.0
2015-Jul-28 15:11N 31°12' E 032°21'1 1.0
2015-Jul-28 14:33N 31°13' E 032°21'10 9.9
2015-Jul-28 13:33N 31°23' E 032°23'7 1.2
2015-Jul-28 08:08N 31°28' E 032°19'9 8.9
2015-Jul-28 07:09N 31°33' E 032°11'711.1
2015-Jul-28 06:31N 31°38' E 032°05'1010.0
2015-Jul-28 05:33N 31°45' E 031°57'8 8.5
2015-Jul-28 04:33N 31°50' E 031°50'8 8.5
2015-Jul-28 03:33N 31°56' E 031°42'8 8.4
2015-Jul-28 02:33N 32°01' E 031°34'8 8.4
2015-Jul-28 01:33N 32°06' E 031°26'9 8.3
2015-Jul-28 00:29N 32°10' E 031°17'24 8.1
2015-Jul-27 21:33N 32°26' E 030°56'8 8.5
2015-Jul-27 20:34N 32°32' E 030°49'8 8.3
2015-Jul-27 19:34N 32°38' E 030°42'8 8.2
2015-Jul-27 18:33N 32°43' E 030°34'9 9.1
2015-Jul-27 17:33N 32°48' E 030°26'3210.7
2015-Jul-27 14:33N 33°09' E 029°56'1110.7
2015-Jul-27 13:34N 33°15' E 029°46'1110.9
2015-Jul-27 12:33N 33°22' E 029°35'7011.4
2015-Jul-27 06:25N 34°06' E 028°31'1412.3
2015-Jul-27 05:19N 34°15' E 028°18'1012.5
2015-Jul-27 04:33N 34°21' E 028°09'1313.4
2015-Jul-27 03:33N 34°29' E 027°56'1413.6
2015-Jul-27 02:33N 34°38' E 027°43'1413.6
2015-Jul-27 01:33N 34°46' E 027°30'1313.3
2015-Jul-27 00:33N 34°55' E 027°18'1313.1
2015-Jul-26 23:33N 35°03' E 027°05'1313.3
2015-Jul-26 22:33N 35°11' E 026°53'1413.9
2015-Jul-26 21:33N 35°20' E 026°40'1414.1
2015-Jul-26 20:33N 35°29' E 026°26'1413.6
2015-Jul-26 19:33N 35°36' E 026°12'1413.3
2015-Jul-26 18:29N 35°44' E 025°57'1213.3
2015-Jul-26 17:33N 35°50' E 025°44'1413.2
2015-Jul-26 16:31N 35°57' E 025°30'1313.1
2015-Jul-26 15:33N 36°04' E 025°16'1313.2
2015-Jul-26 14:33N 36°10' E 025°02'1413.7
2015-Jul-26 13:33N 36°18' E 024°48'1313.1
2015-Jul-26 12:32N 36°24' E 024°33'1312.9
2015-Jul-26 11:34N 36°31' E 024°20'1212.4
2015-Jul-26 10:34N 36°40' E 024°10'1313.1
2015-Jul-26 09:34N 36°53' E 024°04'1313.2
2015-Jul-26 08:34N 37°05' E 023°58'1313.4
2015-Jul-26 07:33N 37°18' E 023°52'1313.0
2015-Jul-26 06:33N 37°30' E 023°47'1313.2
2015-Jul-26 05:34N 37°42' E 023°41'1212.5
2015-Jul-26 04:34N 37°54' E 023°37'3 3.4
2015-Jul-26 03:33N 37°57' E 023°35'0 0.0
2015-Jul-26 02:33N 37°57' E 023°35'0 0.0
2015-Jul-26 01:33N 37°57' E 023°35'0 0.0
2015-Jul-26 00:33N 37°57' E 023°35'0 0.0
2015-Jul-25 23:33N 37°57' E 023°35'0 0.0
2015-Jul-25 22:33N 37°57' E 023°35'0 0.0
2015-Jul-25 21:33N 37°57' E 023°35'0 0.0
2015-Jul-25 20:33N 37°57' E 023°35'0 0.0
2015-Jul-25 19:30N 37°57' E 023°35'0 0.0
2015-Jul-25 18:30N 37°57' E 023°35'0 0.0
2015-Jul-25 17:33N 37°57' E 023°35'0 0.0
2015-Jul-25 16:33N 37°57' E 023°35'0 0.0
2015-Jul-25 15:33N 37°57' E 023°35'0 0.0
2015-Jul-25 14:33N 37°57' E 023°35'0 0.0
2015-Jul-25 13:33N 37°57' E 023°35'0 0.0
2015-Jul-25 12:33N 37°57' E 023°35'0 0.0
2015-Jul-25 11:33N 37°57' E 023°35'0 0.0
2015-Jul-25 10:33N 37°57' E 023°35'0 0.0
2015-Jul-25 09:27N 37°57' E 023°35'0 0.0
2015-Jul-25 08:33N 37°57' E 023°35'0 0.0
2015-Jul-25 07:33N 37°57' E 023°35'0 0.0
2015-Jul-25 06:33N 37°57' E 023°35'0 0.0
2015-Jul-25 05:33N 37°57' E 023°35'1 0.6
2015-Jul-25 04:33N 37°57' E 023°35'3 2.8
2015-Jul-25 03:33N 37°54' E 023°36'2 2.1
2015-Jul-25 02:33N 37°52' E 023°38'8 7.9
2015-Jul-25 01:34N 37°46' E 023°42'1111.1
2015-Jul-25 00:33N 37°35' E 023°48'5 5.2
2015-Jul-24 23:33N 37°30' E 023°48'1 1.1
2015-Jul-24 22:33N 37°29' E 023°47'1 1.1
2015-Jul-24 21:33N 37°29' E 023°46'1 1.0
2015-Jul-24 20:33N 37°28' E 023°45'1 1.1
2015-Jul-24 19:33N 37°27' E 023°44'1 1.1
2015-Jul-24 18:33N 37°26' E 023°44'1 1.1
2015-Jul-24 17:33N 37°25' E 023°44'1 1.0
2015-Jul-24 16:33N 37°24' E 023°44'1 1.0
2015-Jul-24 15:33N 37°23' E 023°45'1 1.0
2015-Jul-24 14:33N 37°22' E 023°46'1 0.8
2015-Jul-24 13:33N 37°22' E 023°47'1 0.9
2015-Jul-24 12:33N 37°22' E 023°48'1 1.0
2015-Jul-24 11:33N 37°22' E 023°49'1 0.6
2015-Jul-24 10:33N 37°22' E 023°50'1 0.6
2015-Jul-24 09:33N 37°22' E 023°50'1 0.5
2015-Jul-24 08:33N 37°22' E 023°51'1 0.5
2015-Jul-24 07:33N 37°22' E 023°51'1 1.1
2015-Jul-24 06:33N 37°23' E 023°53'10 9.6
2015-Jul-24 05:34N 37°31' E 023°58'19 8.6
2015-Jul-24 03:21N 37°45' E 024°15'8 9.6
2015-Jul-24 02:31N 37°49' E 024°23'24010.3
2015-Jul-23 03:20N 40°48' E 027°50'2311.3
2015-Jul-23 01:15N 40°51' E 028°21'912.4
2015-Jul-23 00:33N 40°52' E 028°32'1111.1
2015-Jul-22 23:32N 40°45' E 028°45'1313.1
2015-Jul-22 22:33N 40°45' E 029°01'1313.3
2015-Jul-22 21:33N 40°45' E 029°19'1211.4
2015-Jul-22 20:32N 40°45' E 029°34'  

Dump ship's entire track history